Terminal Aerodrome Forecast
Issued by NWS Jackson, MS

Current Version | Previous Version | Text Only | Print | Product List | Glossary On
Versions: 1 2 3 4 5 6 7 8 9 10 11 12 13 14 15
446
FTUS44 KJAN 281744 RRA
TAFGLH
TAF
KGLH 281744Z 2818/2918 04009KT P6SM SCT025 BKN040
     FM290100 01005KT P6SM FEW040
     FM291000 02004KT 5SM BR SKC
     FM291400 04008KT P6SM FEW030=

USA.gov is the U.S. government's official web portal to all federal, state and local government web resources and services.